CheckWX is a tool to help pilots better visualize weather data.  It is not intended as a substitute for an official pre-flight weather briefing.

08:13:57 UTC

EBCV TAF
Chièvres Air Base Airport
Chièvres, Belgium
TAF EBCV 190541Z 1907/1916 20003KT 9999 FEW050 TEMPO 1907/1909 VRB01KT 4000 BR PROB30 TEMPO 1907/1908 VRB00KT 1500 BR BKN002 BECMG 1910/912 25002KT TEMPO 1910/1916 BKN030 BY EBWM

Mar-19@
07:00 UTC

Mar-19 @ 07:00 UTC

Mar-19@
16:00 UTC

Mar-19 @ 16:00 UTC

TAF EBCV 190541Z 1907/1916 20003KT 9999 FEW050
Wind
  • 200° at 3 KTS
Cloud Levels
  • Few at 5,000' AGL

Mar-19@
07:00 UTC

Mar-19 @ 07:00 UTC

Mar-19@
08:00 UTC

Mar-19 @ 08:00 UTC

PROB30 TEMPO 1907/1908 VRB00KT 1500 BR BKN002

Expired

Conditions
Mist
Cloud Levels
  • Broken at 200' AGL

Mar-19@
07:00 UTC

Mar-19 @ 07:00 UTC

Mar-19@
09:00 UTC

Mar-19 @ 09:00 UTC

TEMPO 1907/1909 VRB01KT 4000 BR

Temporary

Temporary Changes expected for less than half the time period

Wind
  • Variable at 1 KTS
Conditions
Mist

Mar-19@
10:00 UTC

Mar-19 @ 10:00 UTC

Mar-19@
16:00 UTC

Mar-19 @ 16:00 UTC

TEMPO 1910/1916 BKN030 BY EBWM

Temporary

Temporary Changes expected for less than half the time period

Cloud Levels
  • Broken at 3,000' AGL